Terminal Aerodrome Forecast
Issued by NWS

Home | Current Version | Previous Version | Text Only | Print | Product List | Glossary On
Versions: 1 2 3 4 5 6 7 8 9 10 11 12 13 14 15 16 17
000
FTUS41 KPBZ 212300
TAFMGW
TAF
KMGW 212322Z 2200/2224 29005KT P6SM VCSH SCT008 BKN020
      TEMPO 2200/2203 BKN008 OVC020
     FM220300 31005KT P6SM VCSH BKN010 OVC020
      TEMPO 2203/2207 5SM BR OVC007
     FM221500 32008KT P6SM BKN025
     FM222200 33007KT P6SM BKN035=

USA.gov is the U.S. government's official web portal to all federal, state and local government web resources and services.